Time;durP1;ratioP1;P1;durP2;ratioP2;P2;SDS_P1;SDS_P2;PMS_P1;PMS_P2;Temp;Humidity;BMP_temperature;BMP_pressure;BME280_temperature;BME280_humidity;BME280_pressure;Samples;Min_cycle;Max_cycle;Signal;HPM_P1;HPM_P2
2022/05/04 00:01:47;;;;;;;9.23;5.43;;;12.80;98.00;;;;;;5053528;28;20205;-57
2022/05/04 00:04:13;;;;;;;7.77;5.30;;;12.80;98.00;;;;;;5053634;28;20714;-57
2022/05/04 00:06:40;;;;;;;9.13;5.20;;;12.70;98.00;;;;;;5054163;28;20205;-59
2022/05/04 00:09:07;;;;;;;8.93;5.27;;;12.70;97.90;;;;;;5053840;28;20232;-57
2022/05/04 00:11:34;;;;;;;6.53;4.60;;;12.70;97.80;;;;;;5053973;28;20213;-56
2022/05/04 00:14:02;;;;;;;7.00;5.00;;;12.70;97.70;;;;;;5053837;28;20271;-58
2022/05/04 00:16:29;;;;;;;6.27;4.70;;;12.70;97.60;;;;;;5053868;28;20212;-58
2022/05/04 00:18:56;;;;;;;7.57;5.13;;;12.70;97.70;;;;;;5053902;28;20208;-58
2022/05/04 00:21:22;;;;;;;8.80;5.10;;;12.70;97.60;;;;;;5053333;28;20213;-58
2022/05/04 00:23:49;;;;;;;6.90;4.80;;;12.60;97.60;;;;;;5053528;28;20288;-58
2022/05/04 00:26:16;;;;;;;8.10;5.10;;;12.60;97.60;;;;;;5053564;28;20209;-56
2022/05/04 00:28:43;;;;;;;9.73;4.97;;;12.60;97.60;;;;;;5053466;28;20221;-58
2022/05/04 00:31:11;;;;;;;7.33;4.83;;;12.60;97.50;;;;;;5053434;28;20205;-57
2022/05/04 00:33:37;;;;;;;11.10;5.27;;;12.50;97.50;;;;;;5053392;28;20209;-58
2022/05/04 00:36:04;;;;;;;8.17;5.10;;;12.50;97.90;;;;;;5053589;28;20718;-56
2022/05/04 00:38:31;;;;;;;10.10;5.07;;;12.50;97.50;;;;;;5053589;28;20212;-57
2022/05/04 00:40:58;;;;;;;8.90;5.10;;;12.40;97.50;;;;;;5053440;28;20205;-57
2022/05/04 00:43:26;;;;;;;8.30;5.13;;;12.40;97.50;;;;;;5053377;28;20595;-57
2022/05/04 00:45:53;;;;;;;7.37;4.80;;;12.40;97.90;;;;;;5053328;28;20206;-57
2022/05/04 00:48:21;;;;;;;7.13;4.77;;;12.40;97.60;;;;;;5053300;28;20567;-57
2022/05/04 00:50:50;;;;;;;11.33;5.40;;;12.30;97.60;;;;;;5053175;28;20228;-57
2022/05/04 00:53:17;;;;;;;9.03;5.47;;;12.30;97.50;;;;;;5053103;28;20663;-57
2022/05/04 00:55:44;;;;;;;8.27;4.90;;;12.30;97.60;;;;;;5052828;28;20216;-59
2022/05/04 01:01:00;;;;;;;8.00;5.40;;;12.40;97.50;;;;;;5053039;28;20177;-57
2022/05/04 01:03:28;;;;;;;9.20;4.90;;;12.40;97.50;;;;;;5053014;28;20233;-58
2022/05/04 01:05:55;;;;;;;11.33;5.50;;;12.30;97.40;;;;;;5052802;28;20204;-56
2022/05/04 01:08:22;;;;;;;8.30;5.47;;;12.30;97.50;;;;;;5052688;28;20201;-57
2022/05/04 01:10:49;;;;;;;9.60;5.50;;;12.30;97.60;;;;;;5052545;28;20229;-57
2022/05/04 01:13:19;;;;;;;9.87;5.13;;;12.30;97.60;;;;;;5051700;28;20547;-58
2022/05/04 01:15:46;;;;;;;9.30;5.17;;;12.30;97.60;;;;;;5052624;28;20196;-58
2022/05/04 01:18:13;;;;;;;9.87;5.23;;;12.30;97.50;;;;;;5052281;28;20209;-59
2022/05/04 01:20:41;;;;;;;8.23;5.07;;;12.30;97.50;;;;;;5052639;28;20208;-57
2022/05/04 01:23:09;;;;;;;8.23;5.07;;;12.30;97.40;;;;;;5052465;28;20209;-57
2022/05/04 01:25:36;;;;;;;7.37;5.07;;;12.30;97.40;;;;;;5052722;28;20208;-56
2022/05/04 01:28:03;;;;;;;9.10;5.27;;;12.30;97.40;;;;;;5052118;28;20213;-58
2022/05/04 01:30:32;;;;;;;7.10;5.00;;;12.30;97.30;;;;;;5052715;28;20574;-57
2022/05/04 01:32:59;;;;;;;10.97;5.10;;;12.30;97.40;;;;;;5052389;28;20294;-57
2022/05/04 01:35:26;;;;;;;10.67;4.57;;;12.30;97.30;;;;;;5052381;28;20233;-58
2022/05/04 01:37:53;;;;;;;10.30;5.17;;;12.30;97.30;;;;;;5052402;28;20228;-56
2022/05/04 01:40:21;;;;;;;8.00;5.30;;;12.30;97.30;;;;;;5051924;28;20197;-58
2022/05/04 01:42:48;;;;;;;11.67;5.27;;;12.30;97.30;;;;;;5052351;28;20552;-57
2022/05/04 01:45:15;;;;;;;9.40;5.47;;;12.30;97.30;;;;;;5052214;28;20216;-57
2022/05/04 01:47:42;;;;;;;11.50;5.50;;;12.30;97.30;;;;;;5052130;28;20201;-57
2022/05/04 01:50:09;;;;;;;7.50;5.10;;;12.30;97.30;;;;;;5051918;28;20655;-58
2022/05/04 01:52:36;;;;;;;9.67;5.77;;;12.20;97.30;;;;;;5052522;28;20206;-58
2022/05/04 01:55:03;;;;;;;8.63;5.60;;;12.20;97.40;;;;;;5052128;28;20563;-58
2022/05/04 01:57:31;;;;;;;7.53;5.33;;;12.10;97.50;;;;;;5052040;28;20228;-57
2022/05/04 01:59:58;;;;;;;12.13;5.37;;;12.10;97.50;;;;;;5052059;28;20631;-57
2022/05/04 02:02:27;;;;;;;8.77;5.20;;;12.00;97.50;;;;;;5051831;28;20328;-59
2022/05/04 02:04:54;;;;;;;10.77;5.37;;;12.00;97.60;;;;;;5051550;28;20193;-57
2022/05/04 02:07:21;;;;;;;9.60;5.00;;;11.90;97.70;;;;;;5051597;28;20205;-59
2022/05/04 02:09:48;;;;;;;9.43;5.00;;;11.80;97.70;;;;;;5051808;28;20249;-57
2022/05/04 02:12:15;;;;;;;9.83;5.00;;;11.70;97.80;;;;;;5051257;28;20205;-57
2022/05/04 02:14:43;;;;;;;10.63;5.33;;;11.70;97.80;;;;;;5051856;28;20202;-59
2022/05/04 02:17:09;;;;;;;7.40;5.07;;;11.60;97.90;;;;;;5051652;28;20587;-55
2022/05/04 02:19:36;;;;;;;10.07;5.20;;;11.50;98.10;;;;;;5051706;28;20277;-57
2022/05/04 02:22:03;;;;;;;8.50;5.03;;;11.40;98.20;;;;;;5051532;28;20211;-57
2022/05/04 02:24:30;;;;;;;7.57;5.27;;;11.40;98.30;;;;;;5051216;28;20217;-56
2022/05/04 02:26:57;;;;;;;8.57;5.00;;;11.40;98.40;;;;;;5051217;28;20210;-58
2022/05/04 02:29:24;;;;;;;8.80;4.87;;;11.40;98.40;;;;;;5051477;28;20221;-57
2022/05/04 02:31:52;;;;;;;9.67;5.23;;;11.30;98.30;;;;;;5051625;28;20355;-57
2022/05/04 02:34:18;;;;;;;8.37;4.93;;;11.30;98.30;;;;;;5051313;28;20229;-57
2022/05/04 02:39:30;;;;;;;11.37;4.67;;;11.30;98.30;;;;;;5051306;28;20667;-58
2022/05/04 02:41:57;;;;;;;8.33;5.00;;;11.30;98.40;;;;;;5051096;28;20216;-56
2022/05/04 02:44:24;;;;;;;7.60;4.60;;;11.20;98.50;;;;;;5051601;28;20212;-56
2022/05/04 02:46:52;;;;;;;10.87;4.90;;;11.20;98.50;;;;;;5051363;28;20202;-59
2022/05/04 02:49:19;;;;;;;7.03;4.77;;;11.20;98.60;;;;;;5051233;28;20217;-57
2022/05/04 02:51:46;;;;;;;8.17;4.93;;;11.20;98.50;;;;;;5051153;28;20216;-58
2022/05/04 02:54:13;;;;;;;6.93;4.73;;;11.20;98.50;;;;;;5051368;28;20217;-56
2022/05/04 02:56:40;;;;;;;7.73;4.57;;;11.20;98.50;;;;;;5051462;28;20205;-57
2022/05/04 02:59:06;;;;;;;11.70;4.60;;;11.10;98.60;;;;;;5051312;28;20201;-56
2022/05/04 03:04:19;;;;;;;6.53;4.70;;;11.10;98.60;;;;;;5051179;28;20243;-57
2022/05/04 03:06:46;;;;;;;8.73;4.87;;;11.10;98.70;;;;;;5051344;28;20205;-55
2022/05/04 03:09:13;;;;;;;9.40;4.60;;;11.10;98.70;;;;;;5051302;28;20207;-56
2022/05/04 03:11:55;;;;;;;7.80;4.67;;;11.10;98.80;;;;;;5051210;28;20209;-59
2022/05/04 03:14:23;;;;;;;7.87;5.23;;;11.10;98.80;;;;;;5051525;28;20190;-58
2022/05/04 03:16:50;;;;;;;7.90;4.87;;;11.10;98.80;;;;;;5051219;28;20205;-57
2022/05/04 03:19:17;;;;;;;8.70;4.80;;;11.10;98.80;;;;;;5050953;28;20208;-59
2022/05/04 03:21:45;;;;;;;7.60;4.73;;;11.10;98.90;;;;;;5051185;28;20571;-57
2022/05/04 03:24:12;;;;;;;10.40;4.83;;;11.10;98.90;;;;;;5051121;28;20213;-56
2022/05/04 03:26:39;;;;;;;14.27;4.77;;;11.10;99.00;;;;;;5051256;28;20215;-59
2022/05/04 03:29:06;;;;;;;11.83;4.97;;;11.10;99.10;;;;;;5050990;28;20216;-56
2022/05/04 03:31:33;;;;;;;9.07;5.43;;;11.10;99.20;;;;;;5050981;28;20236;-57
2022/05/04 03:34:01;;;;;;;7.90;5.27;;;11.00;99.40;;;;;;5050720;28;20555;-61
2022/05/04 03:36:28;;;;;;;9.43;5.03;;;11.00;99.60;;;;;;5053223;28;20212;-58
2022/05/04 03:38:56;;;;;;;7.83;5.00;;;11.00;99.70;;;;;;5054417;28;20201;-57
2022/05/04 03:41:23;;;;;;;8.47;5.13;;;11.00;99.80;;;;;;5054705;28;20202;-57
2022/05/04 03:43:50;;;;;;;8.27;4.63;;;11.00;99.80;;;;;;5054166;28;20313;-58
2022/05/04 03:46:18;;;;;;;8.87;4.70;;;11.00;99.80;;;;;;5054645;28;20209;-58
2022/05/04 03:48:46;;;;;;;10.43;5.10;;;11.00;99.90;;;;;;5054290;28;20216;-55
2022/05/04 03:51:16;;;;;;;10.97;4.83;;;11.00;99.80;;;;;;5054582;28;20562;-59
2022/05/04 03:53:43;;;;;;;9.27;5.43;;;11.00;99.90;;;;;;5054118;28;20241;-58
2022/05/04 03:56:11;;;;;;;8.60;4.60;;;11.00;99.90;;;;;;5054315;28;20255;-57
2022/05/04 03:58:38;;;;;;;7.97;5.17;;;11.00;99.90;;;;;;5053806;28;20209;-57
2022/05/04 04:01:05;;;;;;;6.97;5.27;;;11.00;99.90;;;;;;5054038;28;20207;-59
2022/05/04 04:03:32;;;;;;;9.30;4.60;;;11.10;99.90;;;;;;5054484;28;20243;-57
2022/05/04 04:05:59;;;;;;;7.60;4.60;;;11.10;99.90;;;;;;5054345;28;20212;-56
2022/05/04 04:08:26;;;;;;;7.97;4.57;;;11.10;99.90;;;;;;5054080;28;20224;-59
2022/05/04 04:10:53;;;;;;;8.57;4.40;;;11.10;99.90;;;;;;5053950;28;20278;-56
2022/05/04 04:13:22;;;;;;;8.90;4.33;;;11.20;99.90;;;;;;5054040;28;20620;-59
2022/05/04 04:15:51;;;;;;;7.67;3.80;;;11.20;99.90;;;;;;5053657;28;20721;-56
2022/05/04 04:18:18;;;;;;;8.10;4.70;;;11.20;99.90;;;;;;5054015;28;20295;-57
2022/05/04 04:23:29;;;;;;;6.37;4.30;;;11.30;99.90;;;;;;5053722;28;20182;-58
2022/05/04 04:25:56;;;;;;;9.17;4.20;;;11.30;99.90;;;;;;5053722;28;20223;-57
2022/05/04 04:28:25;;;;;;;7.57;4.73;;;11.40;99.90;;;;;;5053784;28;20205;-59
2022/05/04 04:30:52;;;;;;;9.80;5.17;;;11.40;99.90;;;;;;5053481;28;20563;-58
2022/05/04 04:33:22;;;;;;;10.53;5.07;;;11.50;99.90;;;;;;5053633;28;20296;-59
2022/05/04 04:35:51;;;;;;;7.23;4.20;;;11.50;99.90;;;;;;5053498;28;20316;-57
2022/05/04 04:38:18;;;;;;;6.70;4.10;;;11.50;99.90;;;;;;5053441;28;20205;-57
2022/05/04 04:40:45;;;;;;;8.97;5.03;;;11.60;99.90;;;;;;5053018;28;20545;-58
2022/05/04 04:43:12;;;;;;;7.50;4.60;;;11.70;99.80;;;;;;5053413;28;20209;-57
2022/05/04 04:45:40;;;;;;;8.37;4.20;;;11.80;99.60;;;;;;5052992;28;20519;-57
2022/05/04 04:48:08;;;;;;;7.67;4.30;;;11.80;99.50;;;;;;5052935;28;20221;-57
2022/05/04 04:50:35;;;;;;;9.73;4.20;;;11.90;99.30;;;;;;5053018;28;20229;-57
2022/05/04 04:53:02;;;;;;;14.30;4.80;;;12.00;99.20;;;;;;5053223;28;20575;-57
2022/05/04 04:55:28;;;;;;;8.30;4.33;;;12.00;98.90;;;;;;5053195;28;20231;-58
2022/05/04 04:57:56;;;;;;;10.43;4.43;;;12.10;99.00;;;;;;5053202;28;20685;-56
2022/05/04 05:00:24;;;;;;;9.63;4.90;;;12.10;98.90;;;;;;5052726;28;20209;-60
2022/05/04 05:02:52;;;;;;;9.00;4.70;;;12.10;98.60;;;;;;5052509;28;20249;-59
2022/05/04 05:05:19;;;;;;;8.47;4.33;;;12.10;98.60;;;;;;5052788;28;20210;-59
2022/05/04 05:07:46;;;;;;;7.80;4.67;;;12.20;98.40;;;;;;5052838;28;20205;-59
2022/05/04 05:10:13;;;;;;;9.53;4.30;;;12.20;98.30;;;;;;5052955;28;20617;-58
2022/05/04 05:12:40;;;;;;;8.30;4.30;;;12.20;98.30;;;;;;5053297;28;20604;-55
2022/05/04 05:17:53;;;;;;;10.07;4.40;;;12.30;98.20;;;;;;5052979;28;20200;-56
2022/05/04 05:20:20;;;;;;;7.97;4.60;;;12.40;98.20;;;;;;5052359;28;20209;-57
2022/05/04 05:22:47;;;;;;;7.53;4.40;;;12.50;98.40;;;;;;5052537;28;20296;-58
2022/05/04 05:25:14;;;;;;;6.80;4.23;;;12.60;97.90;;;;;;5052448;28;20207;-58
2022/05/04 05:27:41;;;;;;;7.73;4.10;;;12.60;97.70;;;;;;5052543;28;20201;-57
2022/05/04 05:30:09;;;;;;;7.70;4.03;;;12.60;97.90;;;;;;5052503;28;20255;-57
2022/05/04 05:32:35;;;;;;;5.93;3.90;;;12.70;97.70;;;;;;5051997;28;20655;-59
2022/05/04 05:35:04;;;;;;;7.43;4.10;;;12.80;97.80;;;;;;5052502;28;20658;-57
2022/05/04 05:37:31;;;;;;;7.30;3.53;;;12.90;97.90;;;;;;5052136;28;20209;-57
2022/05/04 05:39:58;;;;;;;14.13;4.10;;;13.00;97.50;;;;;;5052583;28;20205;-59
2022/05/04 05:42:25;;;;;;;6.73;3.23;;;13.10;97.50;;;;;;5052174;28;20202;-59
2022/05/04 05:44:52;;;;;;;6.03;3.33;;;13.20;97.00;;;;;;5051888;28;20213;-60
2022/05/04 05:47:18;;;;;;;4.37;3.10;;;13.20;96.90;;;;;;5052242;28;20548;-57
2022/05/04 05:49:45;;;;;;;7.13;3.37;;;13.30;96.90;;;;;;5052127;28;20201;-59
2022/05/04 05:52:13;;;;;;;4.97;3.17;;;13.30;96.70;;;;;;5052060;28;20592;-59
2022/05/04 05:54:40;;;;;;;5.20;2.93;;;13.40;97.00;;;;;;5051941;28;20206;-61
2022/05/04 05:57:07;;;;;;;5.60;3.00;;;13.50;96.50;;;;;;5052008;28;20205;-61
2022/05/04 05:59:34;;;;;;;6.17;2.97;;;13.40;96.50;;;;;;5051216;28;20444;-62
2022/05/04 06:02:01;;;;;;;7.70;3.20;;;13.50;96.50;;;;;;5052044;28;20201;-59
2022/05/04 06:04:28;;;;;;;5.30;3.30;;;13.50;95.90;;;;;;5051380;28;20237;-58
2022/05/04 06:06:55;;;;;;;5.93;2.73;;;13.50;96.00;;;;;;5051889;28;20201;-59
2022/05/04 06:09:23;;;;;;;5.57;2.70;;;13.40;95.90;;;;;;5051365;28;20216;-58
2022/05/04 06:11:51;;;;;;;4.57;2.60;;;13.50;96.10;;;;;;5051548;28;20725;-58
2022/05/04 06:14:18;;;;;;;8.13;3.03;;;13.50;96.10;;;;;;5051638;28;20638;-56
2022/05/04 06:16:45;;;;;;;4.67;2.87;;;13.60;96.10;;;;;;5051632;28;20206;-58
2022/05/04 06:19:12;;;;;;;4.73;2.90;;;13.70;95.60;;;;;;5051647;28;20339;-57
2022/05/04 06:21:39;;;;;;;7.70;3.00;;;13.70;95.40;;;;;;5051490;28;20615;-59
2022/05/04 06:24:07;;;;;;;4.50;3.00;;;13.60;95.40;;;;;;5051848;28;20201;-59
2022/05/04 06:26:35;;;;;;;5.03;2.67;;;13.70;95.40;;;;;;5051555;28;20201;-61
2022/05/04 06:29:02;;;;;;;5.90;2.43;;;13.70;95.30;;;;;;5051599;28;20215;-57
2022/05/04 06:34:13;;;;;;;6.57;2.90;;;13.90;94.70;;;;;;5051259;28;20263;-58
2022/05/04 06:36:41;;;;;;;3.90;2.30;;;13.90;94.80;;;;;;5051418;28;20564;-58
2022/05/04 06:39:08;;;;;;;6.83;2.60;;;14.10;94.90;;;;;;5051593;28;20609;-59
2022/05/04 06:41:38;;;;;;;6.87;3.10;;;14.20;94.80;;;;;;5051427;28;20215;-56
2022/05/04 06:44:06;;;;;;;6.77;2.80;;;14.20;94.90;;;;;;5051442;28;20205;-58
2022/05/04 06:46:32;;;;;;;4.50;2.73;;;14.30;94.90;;;;;;5051365;28;20570;-57
2022/05/04 06:48:59;;;;;;;10.07;3.07;;;14.40;94.80;;;;;;5051397;28;20205;-58
2022/05/04 06:51:26;;;;;;;6.97;2.80;;;14.50;94.50;;;;;;5051192;28;20275;-59
2022/05/04 06:53:53;;;;;;;4.80;2.90;;;14.50;94.00;;;;;;5051016;28;20202;-58
2022/05/04 06:56:20;;;;;;;5.17;2.80;;;14.40;94.00;;;;;;5050963;28;20205;-59
2022/05/04 06:58:48;;;;;;;5.13;2.80;;;14.40;94.30;;;;;;5051093;28;20205;-59
2022/05/04 07:01:15;;;;;;;5.63;3.10;;;14.50;94.40;;;;;;5051338;28;20560;-58
2022/05/04 07:03:42;;;;;;;4.30;2.73;;;14.60;94.00;;;;;;5051038;28;20765;-58
2022/05/04 07:06:08;;;;;;;8.53;2.70;;;14.70;93.40;;;;;;5051322;28;20208;-58
2022/05/04 07:08:36;;;;;;;10.27;2.87;;;14.70;93.60;;;;;;5051182;28;20205;-57
2022/05/04 07:11:03;;;;;;;3.97;2.50;;;14.70;93.10;;;;;;5053017;28;20225;-61
2022/05/04 07:13:30;;;;;;;5.53;3.10;;;14.70;93.20;;;;;;5054873;28;20667;-60
2022/05/04 07:15:58;;;;;;;7.13;3.40;;;14.80;93.60;;;;;;5055269;28;20673;-60
2022/05/04 07:18:25;;;;;;;4.23;2.77;;;14.90;93.70;;;;;;5054920;28;20560;-60
2022/05/04 07:20:51;;;;;;;6.33;2.87;;;15.00;92.80;;;;;;5055088;28;20198;-58
2022/05/04 07:23:18;;;;;;;4.77;2.63;;;15.00;93.10;;;;;;5054625;28;20209;-60
2022/05/04 07:25:45;;;;;;;3.57;2.50;;;15.00;92.70;;;;;;5054955;28;20571;-58
2022/05/04 07:28:12;;;;;;;5.23;3.20;;;14.90;93.00;;;;;;5054414;28;20213;-58
2022/05/04 07:30:39;;;;;;;4.30;2.47;;;15.00;92.90;;;;;;5054823;28;20210;-57
2022/05/04 07:33:07;;;;;;;9.67;2.90;;;15.00;92.80;;;;;;5054797;28;20667;-58
2022/05/04 07:35:34;;;;;;;5.77;2.60;;;15.00;93.10;;;;;;5054396;28;20278;-58
2022/05/04 07:38:01;;;;;;;5.77;3.00;;;15.00;93.00;;;;;;5055104;28;20227;-59
2022/05/04 07:43:12;;;;;;;7.17;2.87;;;15.10;92.80;;;;;;5054495;28;20709;-58
2022/05/04 07:45:39;;;;;;;16.57;3.60;;;15.20;92.50;;;;;;5054370;28;20210;-57
2022/05/04 07:48:08;;;;;;;8.80;2.70;;;15.20;92.80;;;;;;5054509;28;20203;-57
2022/05/04 07:50:35;;;;;;;4.43;2.50;;;15.20;91.90;;;;;;5054485;28;20209;-57
2022/05/04 07:53:02;;;;;;;5.23;2.67;;;15.10;91.50;;;;;;5054141;28;20236;-57
2022/05/04 07:55:31;;;;;;;4.40;2.60;;;15.10;91.80;;;;;;5054160;28;20668;-55
2022/05/04 07:57:58;;;;;;;3.00;2.40;;;15.10;91.70;;;;;;5054370;28;20241;-55
2022/05/04 08:05:55;;;;;;;5.93;2.57;;;15.20;90.30;;;;;;5054409;28;20192;-57
2022/05/04 08:08:22;;;;;;;3.00;2.13;;;15.20;90.80;;;;;;5053730;28;20201;-57
2022/05/04 08:10:49;;;;;;;3.97;2.43;;;15.20;90.90;;;;;;5054198;28;20672;-59
2022/05/04 08:13:19;;;;;;;8.47;4.10;;;15.20;91.30;;;;;;5053665;28;20209;-59
2022/05/04 08:15:46;;;;;;;3.90;2.37;;;15.30;90.70;;;;;;5054223;28;20189;-58
2022/05/04 08:18:14;;;;;;;4.07;2.10;;;15.30;90.70;;;;;;5053814;28;20215;-58
2022/05/04 08:20:41;;;;;;;6.10;2.00;;;15.30;90.50;;;;;;5054254;28;20213;-58
2022/05/04 08:23:09;;;;;;;4.47;2.00;;;15.30;90.20;;;;;;5053509;28;20201;-56
2022/05/04 08:25:36;;;;;;;2.63;2.07;;;15.30;90.60;;;;;;5054064;28;20557;-59
2022/05/04 08:28:03;;;;;;;6.10;2.20;;;15.30;90.60;;;;;;5053860;28;20668;-58
2022/05/04 08:30:30;;;;;;;5.27;1.97;;;15.40;90.40;;;;;;5053974;28;20569;-59
2022/05/04 08:32:57;;;;;;;4.67;2.10;;;15.50;89.50;;;;;;5053811;28;20232;-57
2022/05/04 08:35:25;;;;;;;3.70;1.93;;;15.50;89.20;;;;;;5053417;28;20233;-58
2022/05/04 08:37:52;;;;;;;5.23;1.90;;;15.50;89.00;;;;;;5053686;28;20201;-58
2022/05/04 08:40:19;;;;;;;3.20;2.03;;;15.50;88.70;;;;;;5053239;28;20343;-58
2022/05/04 08:42:46;;;;;;;6.53;2.20;;;15.40;89.30;;;;;;5053756;28;20201;-58
2022/05/04 08:45:14;;;;;;;9.97;2.13;;;15.40;88.60;;;;;;5053303;28;20216;-58
2022/05/04 08:47:42;;;;;;;3.67;2.10;;;15.50;88.00;;;;;;5053140;28;20214;-58
2022/05/04 08:50:13;;;;;;;4.67;2.03;;;15.40;88.80;;;;;;5053257;28;20244;-57
2022/05/04 08:52:51;;;;;;;6.10;2.00;;;15.50;89.30;;;;;;5053076;28;20209;-58
2022/05/04 08:55:19;;;;;;;3.43;1.83;;;15.60;88.40;;;;;;5053202;28;20602;-58
2022/05/04 08:57:46;;;;;;;3.57;2.20;;;15.70;87.60;;;;;;5052838;28;20209;-59
2022/05/04 09:00:13;;;;;;;3.00;1.90;;;15.70;86.60;;;;;;5053026;28;20659;-57
2022/05/04 09:02:40;;;;;;;5.17;1.80;;;15.60;86.60;;;;;;5052931;28;20236;-59
2022/05/04 09:05:18;;;;;;;4.27;1.73;;;15.60;87.00;;;;;;5052991;28;20193;-58
2022/05/04 09:07:49;;;;;;;4.27;2.00;;;15.60;87.40;;;;;;5053185;28;20531;-57
2022/05/04 09:10:18;;;;;;;2.77;1.90;;;15.60;87.80;;;;;;5052996;28;20260;-58
2022/05/04 09:12:46;;;;;;;5.60;1.87;;;15.70;87.40;;;;;;5053038;28;20225;-56
2022/05/04 09:15:19;;;;;;;1.60;1.43;;;15.70;86.10;;;;;;5052511;28;20205;-58
2022/05/04 09:17:46;;;;;;;2.40;1.70;;;15.70;86.00;;;;;;5053038;28;20190;-59
2022/05/04 09:22:59;;;;;;;3.37;1.67;;;15.70;86.00;;;;;;5052647;28;20502;-57
2022/05/04 09:25:25;;;;;;;4.37;1.77;;;15.80;84.80;;;;;;5053143;28;20213;-58
2022/05/04 09:27:52;;;;;;;2.70;1.80;;;15.90;84.30;;;;;;5052499;28;20297;-56
2022/05/04 09:30:26;;;;;;;4.47;1.90;;;16.00;83.80;;;;;;5052791;28;20564;-59
2022/05/04 09:32:53;;;;;;;7.53;2.83;;;16.10;83.40;;;;;;5051929;28;20213;-60
2022/05/04 09:35:20;;;;;;;7.07;3.20;;;16.20;83.60;;;;;;5052301;28;20249;-57
2022/05/04 09:46:04;;;;;;;3.53;2.03;;;16.50;80.30;;;;;;5052633;28;20239;-57
2022/05/04 09:48:32;;;;;;;3.80;1.90;;;16.50;80.10;;;;;;5052727;28;20564;-56
2022/05/04 09:51:04;;;;;;;3.10;1.93;;;16.50;79.60;;;;;;5052416;28;20201;-61
2022/05/04 09:53:31;;;;;;;2.77;1.53;;;16.30;80.80;;;;;;5052200;28;20256;-60
2022/05/04 09:56:00;;;;;;;3.03;1.90;;;16.20;81.80;;;;;;5052840;28;20206;-58
2022/05/04 09:58:27;;;;;;;3.20;1.63;;;16.10;82.20;;;;;;5052647;28;20211;-59
2022/05/04 10:00:55;;;;;;;11.40;2.20;;;16.10;81.70;;;;;;5052819;28;20205;-59
2022/05/04 10:03:23;;;;;;;2.80;2.00;;;16.10;80.90;;;;;;5052673;28;20287;-59
2022/05/04 10:05:50;;;;;;;3.00;1.70;;;16.20;80.40;;;;;;5052471;28;20738;-56
2022/05/04 10:08:18;;;;;;;3.70;1.60;;;16.40;80.20;;;;;;5052153;28;20318;-59
2022/05/04 10:10:47;;;;;;;8.17;3.73;;;16.60;79.90;;;;;;5052295;28;20205;-58
2022/05/04 10:13:18;;;;;;;2.43;1.87;;;16.70;78.50;;;;;;5052004;28;20229;-58
2022/05/04 10:15:47;;;;;;;2.77;2.00;;;16.60;77.20;;;;;;5052149;28;20223;-59
2022/05/04 10:18:18;;;;;;;4.77;1.93;;;16.60;78.00;;;;;;5052019;28;20216;-61
2022/05/04 10:20:50;;;;;;;5.03;2.20;;;16.60;79.30;;;;;;5051790;28;20200;-54
2022/05/04 10:23:22;;;;;;;9.97;2.77;;;16.60;80.50;;;;;;5052095;28;20281;-59
2022/05/04 10:25:50;;;;;;;8.33;2.47;;;16.60;82.30;;;;;;5051598;28;20225;-59
2022/05/04 10:28:18;;;;;;;8.20;2.57;;;16.70;82.00;;;;;;5051806;28;20519;-60
2022/05/04 10:30:51;;;;;;;5.70;2.60;;;16.70;82.00;;;;;;5051786;28;20659;-59
2022/05/04 10:33:19;;;;;;;8.63;2.50;;;16.70;81.70;;;;;;5051712;28;20768;-60
2022/05/04 10:35:48;;;;;;;3.90;2.10;;;16.70;80.70;;;;;;5051518;28;20571;-56
2022/05/04 10:38:17;;;;;;;4.60;1.97;;;16.80;80.10;;;;;;5051855;28;20201;-57
2022/05/04 10:40:47;;;;;;;4.33;1.87;;;16.90;79.50;;;;;;5051584;28;20205;-61
2022/05/04 10:43:16;;;;;;;4.83;1.83;;;16.90;78.10;;;;;;5051742;28;20189;-57
2022/05/04 10:45:45;;;;;;;6.27;2.00;;;16.80;78.90;;;;;;5054545;28;20616;-59
2022/05/04 10:48:28;;;;;;;7.13;2.17;;;16.90;79.20;;;;;;5056168;28;20205;-58
2022/05/04 10:50:59;;;;;;;9.73;2.23;;;16.90;77.90;;;;;;5055879;28;20199;-56
2022/05/04 10:53:42;;;;;;;4.37;1.90;;;16.90;78.50;;;;;;5056028;28;20217;-58
2022/05/04 10:56:12;;;;;;;6.07;2.00;;;17.00;78.60;;;;;;5054637;28;20287;-63
2022/05/04 10:58:42;;;;;;;8.43;2.50;;;17.10;79.80;;;;;;5055616;28;20259;-64
2022/05/04 11:01:16;;;;;;;5.20;2.37;;;17.20;79.40;;;;;;5055857;28;20200;-63
2022/05/04 11:03:59;;;;;;;10.10;2.33;;;17.20;79.10;;;;;;5055271;28;20614;-63
2022/05/04 11:06:28;;;;;;;3.83;2.20;;;17.30;77.90;;;;;;5055524;28;20631;-63
2022/05/04 11:08:58;;;;;;;5.87;2.83;;;17.40;77.40;;;;;;5055363;28;20206;-65
2022/05/04 11:11:25;;;;;;;4.00;2.07;;;17.50;76.60;;;;;;5055495;28;20586;-63
2022/05/04 11:13:52;;;;;;;3.47;1.80;;;17.60;76.80;;;;;;5055208;28;20226;-62
2022/05/04 11:16:22;;;;;;;3.50;1.73;;;17.60;75.30;;;;;;5055031;28;20206;-63
2022/05/04 11:18:49;;;;;;;2.03;1.50;;;17.30;74.70;;;;;;5055231;28;20197;-62
2022/05/04 11:21:17;;;;;;;2.03;1.50;;;17.00;74.20;;;;;;5054925;28;20217;-64
2022/05/04 11:23:48;;;;;;;5.93;1.70;;;16.90;75.00;;;;;;5054927;28;20202;-64
2022/05/04 11:26:19;;;;;;;2.60;1.70;;;17.00;75.20;;;;;;5055186;28;20205;-63
2022/05/04 11:28:46;;;;;;;3.87;1.90;;;16.90;75.50;;;;;;5055011;28;20205;-63
2022/05/04 11:31:13;;;;;;;5.43;2.23;;;16.90;75.20;;;;;;5054930;28;20544;-63
2022/05/04 11:33:43;;;;;;;4.67;2.13;;;16.90;75.50;;;;;;5054551;28;20240;-62
2022/05/04 11:36:10;;;;;;;4.87;2.10;;;16.90;76.00;;;;;;5056092;28;20644;-63
2022/05/04 11:38:37;;;;;;;3.90;2.07;;;17.00;74.80;;;;;;5054705;28;20205;-64
2022/05/04 11:41:04;;;;;;;3.60;1.80;;;17.00;74.30;;;;;;5054804;28;20209;-63
2022/05/04 11:43:33;;;;;;;5.00;2.10;;;17.10;69.50;;;;;;5054825;28;20197;-65
2022/05/04 11:46:04;;;;;;;3.73;2.00;;;17.10;70.10;;;;;;5054668;28;20206;-62
2022/05/04 11:48:30;;;;;;;2.87;1.60;;;17.20;70.90;;;;;;5054646;28;20186;-63
2022/05/04 11:50:59;;;;;;;7.87;1.80;;;17.40;70.80;;;;;;5054229;28;20201;-63
2022/05/04 11:53:26;;;;;;;7.70;2.13;;;17.40;70.40;;;;;;5054444;28;20232;-63
2022/05/04 11:55:53;;;;;;;6.03;1.70;;;17.40;72.40;;;;;;5053457;28;20206;-62
2022/05/04 11:58:20;;;;;;;8.97;2.00;;;17.40;72.80;;;;;;5054277;28;20205;-64
2022/05/04 12:00:47;;;;;;;4.67;1.97;;;17.20;72.30;;;;;;5054418;28;20686;-62
2022/05/04 12:03:14;;;;;;;3.47;1.70;;;17.20;72.80;;;;;;5054166;28;20229;-63
2022/05/04 12:05:41;;;;;;;2.27;1.60;;;17.20;72.60;;;;;;5054266;28;20205;-65
2022/05/04 12:08:10;;;;;;;6.97;1.90;;;17.10;71.40;;;;;;5054372;28;20486;-63
2022/05/04 12:10:37;;;;;;;3.13;1.90;;;17.10;72.00;;;;;;5054245;28;20676;-64
2022/05/04 12:13:05;;;;;;;4.77;1.90;;;17.10;72.10;;;;;;5053855;28;20244;-63
2022/05/04 12:15:34;;;;;;;2.77;1.50;;;17.20;72.10;;;;;;5054053;28;20205;-62
2022/05/04 12:18:01;;;;;;;3.10;2.03;;;17.20;70.60;;;;;;5054246;28;20227;-64
2022/05/04 12:20:29;;;;;;;7.67;2.17;;;17.20;70.10;;;;;;5054110;28;20216;-63
2022/05/04 12:22:56;;;;;;;4.67;1.97;;;17.30;69.10;;;;;;5053830;28;20209;-64
2022/05/04 12:25:25;;;;;;;4.40;1.90;;;17.10;70.90;;;;;;5054110;28;20218;-64
2022/05/04 12:27:54;;;;;;;3.47;1.70;;;17.00;72.80;;;;;;5054072;28;20578;-64
2022/05/04 12:33:10;;;;;;;2.83;1.60;;;16.90;71.90;;;;;;5053576;28;20228;-63
2022/05/04 12:35:39;;;;;;;2.93;1.63;;;16.90;72.90;;;;;;5056603;28;20190;-60
2022/05/04 12:38:06;;;;;;;3.87;1.90;;;16.80;72.80;;;;;;5053565;28;20225;-61
2022/05/04 12:40:35;;;;;;;4.07;1.73;;;16.80;73.10;;;;;;5053594;28;20212;-61
2022/05/04 12:43:03;;;;;;;1.70;1.40;;;16.80;72.50;;;;;;5053888;28;20694;-61
2022/05/04 12:45:30;;;;;;;5.53;2.17;;;16.80;70.70;;;;;;5053512;28;20209;-61
2022/05/04 12:47:58;;;;;;;4.90;1.90;;;16.90;71.40;;;;;;5053729;28;20701;-62
2022/05/04 12:50:28;;;;;;;4.37;1.80;;;16.90;70.10;;;;;;5053692;28;20370;-61
2022/05/04 12:52:56;;;;;;;2.60;1.60;;;16.90;70.90;;;;;;5053773;28;20679;-62
2022/05/04 12:56:45;;;;;;;1.67;1.50;;;16.80;71.10;;;;;;5053865;28;20210;-62
2022/05/04 12:58:14;;;;;;;3.70;1.50;;;16.70;71.10;;;;;;5053213;28;20675;-61
2022/05/04 13:00:41;;;;;;;4.23;1.80;;;16.50;71.70;;;;;;5053182;28;20616;-62
2022/05/04 13:03:11;;;;;;;3.20;1.63;;;16.40;72.10;;;;;;5052985;28;20307;-62
2022/05/04 13:05:38;;;;;;;3.63;2.33;;;16.40;72.50;;;;;;5053093;28;20201;-61
2022/05/04 13:08:06;;;;;;;3.57;2.17;;;16.40;72.10;;;;;;5053215;28;20209;-61
2022/05/04 13:10:33;;;;;;;2.43;1.87;;;16.50;71.90;;;;;;5052992;28;20292;-61
2022/05/04 13:13:00;;;;;;;3.80;1.90;;;16.50;70.80;;;;;;5053047;28;20217;-60
2022/05/04 13:15:28;;;;;;;4.03;1.90;;;16.70;70.30;;;;;;5052952;28;20566;-61
2022/05/04 13:17:55;;;;;;;2.40;1.70;;;16.70;69.30;;;;;;5052972;28;20568;-60
2022/05/04 13:20:22;;;;;;;2.60;1.60;;;16.80;68.80;;;;;;5052909;28;20221;-65
2022/05/04 13:22:49;;;;;;;2.17;1.80;;;17.00;69.20;;;;;;5053034;28;20749;-61
2022/05/04 13:25:17;;;;;;;4.53;2.40;;;17.20;67.80;;;;;;5052909;28;20276;-60
2022/05/04 13:27:44;;;;;;;3.90;1.87;;;17.20;67.60;;;;;;5052603;28;20255;-62